SAV weather

Savannah Hilton Head International Airport
Savannah, Georgia, United States

Public forecast

Using degrees Fahrenheit for public forecast. Weather courtesy of forecast.io.

METAR (pilot weather report)

Retrieved 2019/05/22 13:53 UTC (55 minutes ago):

KSAV 221353Z 18007KT 10SM FEW020 28/20 A3011 RMK AO2 SLP194 T02830200

TAF (pilot weather forecast)

Retrieved 2019/05/22 12:27 UTC (2 hours ago):

TAF KSAV 221125Z 2212/2312 17004KT P6SM SCT070 FM221500 13009KT P6SM SKC FM221800 14012G18KT P6SM SKC FM230000 15008KT P6SM SKC